• Join FlightAware (Why Join?)
  • Login
  • US Flag 
Gobble Gobble! 
02:14AM EST


 

Airport Tracker/Info


-or-


 

Live Flight TrackerFlight Track Log ✈ N79TE ✈ 16-May-2013 ✈ KASE - KAUS

Flight Track Log - Related Links

Times and Time Zones

All times are in EDT time to prevent confusion due to time zone crossing. See the N79TE flight status page for this flight to view local times or setup timezone preferences in your user account.

Time Position Orientation Groundspeed Altitude Reporting Facility
EDT Latitude Longitude Course Direction KTS MPH feet Rate Location/Type
04:39PM 39.2756 -106.9367 287° West 167 192 12,500  Level Denver Center
04:41PM 39.2414 -106.9619 210° Southwest 166 191 15,000 2,280 Climbing Denver Center
04:42PM 39.1897 -106.9675 185° South 178 205 17,300 2,100 Climbing Denver Center
04:43PM 39.1408 -106.9731 185° South 178 205 19,400 2,160 Climbing Denver Center
04:44PM 39.2636 -107.1309 174° South  Level FlightAware Approximate
04:44PM 39.0769 -106.9792 184° South 189 217 21,800  Level Denver Center
04:45PM 39.0308 -106.9472 152° Southeast 207 238 23,500 1,500 Climbing Denver Center
04:46PM 38.9914 -106.8942 134° Southeast 214 246 24,900 720 Climbing Denver Center
04:47PM 38.9339 -106.8228 136° Southeast 256 295 25,000  Climbing Denver Center
04:48PM 38.8756 -106.7514 136° Southeast 292 336 25,000  Level Denver Center
04:49PM 38.8139 -106.6739 136° Southeast 307 353 25,000  Level Denver Center
04:50PM 38.7503 -106.5972 137° Southeast 311 358 25,000  Level Denver Center
04:51PM 38.6867 -106.5197 136° Southeast 315 362 25,000  Level Denver Center
04:52PM 38.6097 -106.4267 137° Southeast 317 365 25,000  Level Denver Center
04:53PM 38.5450 -106.3517 138° Southeast 316 364 25,000  Level Denver Center
04:54PM 38.4822 -106.2722 135° Southeast 318 366 25,000  Level Denver Center
04:55PM 38.4303 -106.2100 137° Southeast 318 366 25,000  Level Denver Center
04:56PM 38.3453 -106.1083 137° Southeast 316 364 25,000  Level Denver Center
04:57PM 38.2844 -106.0333 136° Southeast 317 365 25,000  Level Denver Center
04:58PM 38.2114 -105.9486 138° Southeast 318 366 25,000  Level Denver Center
04:59PM 38.1514 -105.8742 136° Southeast 317 365 25,000  Level Denver Center
05:00PM 38.1006 -105.8147 137° Southeast 313 360 25,000  Level Denver Center
05:01PM 38.0178 -105.7144 136° Southeast 321 369 25,000  Level Denver Center
05:02PM 37.9350 -105.6186 138° Southeast 317 365 25,000  Level Denver Center
05:03PM 37.8733 -105.5442 136° Southeast 319 367 25,000  Level Denver Center
05:04PM 37.8028 -105.4594 136° Southeast 316 364 25,000  Level Denver Center
05:05PM 37.7383 -105.3872 138° Southeast 319 367 25,000  Level Denver Center
05:06PM 37.6789 -105.3147 136° Southeast 316 364 25,000  Level Denver Center
05:08PM 37.6072 -105.2331 138° Southeast 312 359 25,000  Level Denver Center
05:09PM 37.5492 -105.1619 136° Southeast 309 356 25,000  Level Denver Center
05:10PM 37.4775 -105.0797 138° Southeast 309 356 25,000  Level Denver Center
05:11PM 37.4161 -105.0089 137° Southeast 312 359 25,000  Level Denver Center
05:12PM 37.3333 -104.9150 138° Southeast 313 360 25,000  Level Denver Center
05:13PM 37.2633 -104.8325 137° Southeast 311 358 25,000  Level Denver Center
05:14PM 37.2019 -104.7639 138° Southeast 309 356 25,000  Level Denver Center
05:15PM 37.1431 -104.6942 137° Southeast 307 353 25,000  Level Denver Center
05:16PM 37.0719 -104.6139 138° Southeast 308 354 25,000  Level Denver Center
05:17PM 37.0219 -104.5558 137° Southeast 308 354 25,000  Level Denver Center
05:18PM 36.9406 -104.4644 138° Southeast 308 354 25,000  Level Denver Center
05:19PM 36.8797 -104.3933 137° Southeast 311 358 25,000  Level Denver Center
05:20PM 36.8478 -104.3567 137° Southeast 311 358 25,000  Level Albuquerque Center
05:21PM 36.7761 -104.2761 138° Southeast 312 359 25,000  Level Albuquerque Center
05:22PM 36.7161 -104.2058 137° Southeast 311 358 25,000  Level Albuquerque Center
05:23PM 36.6483 -104.1344 140° Southeast 311 358 25,000  Level Albuquerque Center
05:24PM 36.5836 -104.0639 139° Southeast 309 356 25,000  Level Albuquerque Center
05:25PM 36.5200 -103.9925 138° Southeast 307 353 25,000  Level Albuquerque Center
05:26PM 36.4447 -103.9072 138° Southeast 310 357 25,000  Level Albuquerque Center
05:27PM 36.3803 -103.8353 138° Southeast 308 354 25,000  Level Albuquerque Center
05:28PM 36.3169 -103.7650 138° Southeast 306 352 25,000  Level Albuquerque Center
05:29PM 36.2531 -103.6936 138° Southeast 305 351 25,000  Level Albuquerque Center
05:30PM 36.1886 -103.6242 139° Southeast 305 351 25,000  Level Albuquerque Center
05:31PM 36.1242 -103.5506 137° Southeast 309 356 25,000  Level Albuquerque Center
05:32PM 36.0586 -103.4769 138° Southeast 312 359 25,000  Level Albuquerque Center
05:33PM 35.9933 -103.4050 138° Southeast 311 358 25,000  Level Albuquerque Center
05:34PM 35.9283 -103.3350 139° Southeast 309 356 25,000  Level Albuquerque Center
05:35PM 35.8519 -103.2506 138° Southeast 311 358 25,000  Level Albuquerque Center
05:36PM 35.7861 -103.1792 139° Southeast 311 358 25,000  Level Albuquerque Center
05:37PM 35.7219 -103.1089 138° Southeast 308 354 25,000  Level Albuquerque Center
05:38PM 35.6572 -103.0381 138° Southeast 307 353 25,000  Level Albuquerque Center
05:39PM 35.5925 -102.9683 139° Southeast 306 352 25,000  Level Albuquerque Center
05:40PM 35.5272 -102.8981 139° Southeast 306 352 25,000  Level Albuquerque Center
05:41PM 35.4633 -102.8278 138° Southeast 306 352 25,000  Level Albuquerque Center
05:42PM 35.3989 -102.7583 139° Southeast 305 351 25,000  Level Albuquerque Center
05:43PM 35.3225 -102.6753 138° Southeast 310 357 25,000  Level Albuquerque Center
05:44PM 35.2558 -102.6033 139° Southeast 309 356 25,000  Level Albuquerque Center
05:45PM 35.1911 -102.5347 139° Southeast 309 356 25,000  Level Albuquerque Center
05:46PM 35.1272 -102.4656 138° Southeast 308 354 25,000  Level Albuquerque Center
05:47PM 35.0633 -102.3961 138° Southeast 310 357 25,000  Level Albuquerque Center
05:48PM 34.9969 -102.3275 140° Southeast 313 360 25,000  Level Albuquerque Center
05:49PM 34.9331 -102.2572 138° Southeast 312 359 25,000  Level Albuquerque Center
05:50PM 34.8544 -102.1758 140° Southeast 312 359 25,000  Level Albuquerque Center
05:52PM 34.7911 -102.1083 139° Southeast 306 352 25,000  Level Albuquerque Center
05:53PM 34.7272 -102.0406 139° Southeast 308 354 25,000  Level Albuquerque Center
05:54PM 34.6611 -101.9725 140° Southeast 311 358 25,000  Level Albuquerque Center
05:55PM 34.5961 -101.9017 138° Southeast 315 362 25,000  Level Albuquerque Center
05:56PM 34.5169 -101.8197 140° Southeast 314 361 25,000  Level Albuquerque Center
05:57PM 34.4506 -101.7519 140° Southeast 314 361 25,000  Level Albuquerque Center
05:58PM 34.3850 -101.6831 139° Southeast 313 360 25,000  Level Albuquerque Center
05:58PM 34.3558 -101.6547 141° Southeast 322 371 25,000  Level Fort Worth Center
05:59PM 34.2753 -101.5678 138° Southeast 321 369 25,000  Level Fort Worth Center
06:00PM 34.2147 -101.5097 142° Southeast 321 369 25,000  Level Fort Worth Center
06:01PM 34.1442 -101.4361 139° Southeast 321 369 25,000  Level Fort Worth Center
06:02PM 34.0836 -101.3731 139° Southeast 321 369 25,000  Level Fort Worth Center
06:03PM 34.0108 -101.2944 138° Southeast 326 375 25,000  Level Fort Worth Center
06:04PM 33.9522 -101.2369 141° Southeast 316 364 25,000  Level Fort Worth Center
06:05PM 33.8792 -101.1611 139° Southeast 316 364 25,000  Level Fort Worth Center
06:06PM 33.8206 -101.1011 140° Southeast 316 364 25,000  Level Fort Worth Center
06:07PM 33.7497 -101.0281 139° Southeast 310 357 25,000  Level Fort Worth Center
06:08PM 33.6928 -100.9683 139° Southeast 315 362 25,000  Level Fort Worth Center
06:09PM 33.6219 -100.8931 138° Southeast 312 359 25,000  Level Fort Worth Center
06:10PM 33.5589 -100.8333 142° Southeast 318 366 25,000  Level Fort Worth Center
06:11PM 33.4722 -100.7950 160° South 311 358 25,000  Level Fort Worth Center
06:12PM 33.3894 -100.7669 164° South 311 358 25,000  Level Fort Worth Center
06:13PM 33.3111 -100.7367 162° South 299 344 25,000  Level Fort Worth Center
06:14PM 33.2303 -100.7114 165° South 299 344 25,000  Level Fort Worth Center
06:15PM 33.1497 -100.6836 164° South 299 344 25,000  Level Fort Worth Center
06:16PM 33.0669 -100.6558 164° South 299 344 25,000  Level Fort Worth Center
06:17PM 32.9842 -100.6281 164° South 299 344 25,000  Level Fort Worth Center
06:18PM 32.9033 -100.6028 165° South 299 344 25,000  Level Fort Worth Center
06:19PM 32.8228 -100.5753 164° South 299 344 25,000  Level Fort Worth Center
06:20PM 32.7400 -100.5475 164° South 299 344 25,000  Level Fort Worth Center
06:21PM 32.6592 -100.5225 165° South 299 344 25,000  Level Fort Worth Center
06:22PM 32.5783 -100.4925 163° South 299 344 25,000  Level Fort Worth Center
06:23PM 32.4956 -100.4675 166° South 299 344 25,000  Level Fort Worth Center
06:24PM 32.4128 -100.4403 164° South 304 350 25,000  Level Fort Worth Center
06:25PM 32.3297 -100.4128 164° South 304 350 25,000  Level Fort Worth Center
06:26PM 32.2469 -100.3856 164° South 304 350 25,000  Level Fort Worth Center
06:27PM 32.1683 -100.3583 164° South 304 350 25,000  Level Fort Worth Center
06:28PM 32.0856 -100.3311 164° South 299 344 25,000  Level Fort Worth Center
06:29PM 32.0047 -100.3067 166° South 299 344 25,000  Level Fort Worth Center
06:30PM 31.9175 -100.2769 164° South 305 351 25,000  Level Fort Worth Center
06:31PM 31.8347 -100.2497 164° South 305 351 25,000  Level Fort Worth Center
06:32PM 31.7539 -100.2253 166° South 305 351 25,000  Level Fort Worth Center
06:33PM 31.6708 -100.1983 165° South 305 351 25,000  Level Fort Worth Center
06:34PM 31.5964 -100.1694 162° South 310 357 25,000  Level Fort Worth Center
06:36PM 31.4333 -100.1189 165° South 308 354 25,000  Level Houston Center
06:37PM 31.3506 -100.0919 164° South 309 356 25,000  Level Houston Center
06:38PM 31.2900 -100.0250 137° Southeast 320 368 25,000  Level Houston Center
06:39PM 31.2486 -99.9061 112° Southeast 328 377 25,000  Level Houston Center
06:40PM 31.2083 -99.8092 116° Southeast 330 380 25,000 -360 Level Houston Center
06:41PM 31.1697 -99.7111 115° Southeast 330 380 24,300 -540 Descending Houston Center
06:42PM 31.1292 -99.6081 115° Southeast 345 397 24,000 -180 Descending Houston Center
06:44PM 31.0894 -99.5100 115° Southeast 336 387 24,000 -360 Level Houston Center
06:45PM 31.0506 -99.4097 114° Southeast 337 388 23,300 -1,080 Descending Houston Center
06:46PM 31.0000 -99.2847 115° Southeast 351 404 21,800 -1,260 Descending Houston Center
06:47PM 30.9583 -99.1806 115° Southeast 354 407 20,700 -1,200 Descending Houston Center
06:48PM 30.9181 -99.0811 115° Southeast 355 409 19,400 -1,440 Descending Houston Center
06:49PM 30.8753 -98.9769 116° Southeast 354 407 17,800 -1,500 Descending Houston Center
06:50PM 30.8317 -98.8528 112° Southeast 354 407 16,300 -1,200 Descending Houston Center
06:51PM 30.8242 -98.7403 94° East 347 399 15,300 -1,140 Descending Houston Center
06:52PM 30.8100 -98.6281 98° East 347 399 14,000 -1,380 Descending Houston Center
06:53PM 30.7883 -98.5172 103° East 348 400 12,500 -1,560 Descending Houston Center
06:54PM 30.7731 -98.4122 100° East 332 382 10,800 -1,740 Descending Houston Center
06:55PM 30.7572 -98.3058 100° East 329 379 9,000 -1,740 Descending Houston Center
06:56PM 30.7411 -98.2022 100° East 326 375 7,300 -1,500 Descending Houston Center
06:57PM 30.7211 -98.0839 101° East 322 371 6,000 -720 Descending Houston Center
06:58PM 30.6742 -98.0056 125° Southeast 309 356 5,900  Descending Houston Center
06:59PM 30.6244 -97.9292 127° Southeast 299 344 6,000  Climbing Houston Center
07:00PM 30.5747 -97.8542 128° Southeast 293 337 5,900  Descending Houston Center
07:01PM 30.5272 -97.7831 128° Southeast 283 326 6,000 -480 Climbing Houston Center
07:02PM 30.4933 -97.6989 115° Southeast 292 336 5,000 -1,380 Descending Houston Center
07:03PM 30.4153 -97.6664 160° South 271 312 3,200 -1,080 Descending Houston Center
07:04PM 30.3603 -97.6603 175° South 217 250 2,800 -300 Descending Houston Center
07:05PM 30.3172 -97.6594 179° South 175 201 2,700 -600 Descending Houston Center
07:06PM 30.2681 -97.6594 180° South 171 197 1,600 -780 Descending Houston Center
07:07PM 30.2378 -97.6583 178° South 127 146 1,200 -300 Descending Houston Center
07:08PM 30.2028 -97.6564 177° South 121 139 1,000 -240 Descending Houston Center
07:10PM 30.1833 -97.6667 221° Southwest  Level FlightAware Approximate
07:17PM 30.1945 -97.6699 221° Southwest  Level Estimated